Time;durP1;ratioP1;P1;durP2;ratioP2;P2;SDS_P1;SDS_P2;PMS_P1;PMS_P2;Temp;Humidity;BMP_temperature;BMP_pressure;BME280_temperature;BME280_humidity;BME280_pressure;Samples;Min_cycle;Max_cycle;Signal;HPM_P1;HPM_P2
2022/10/23 00:02:18;;;;;;;;;;;;;;;13.70;59.93;100147.25;4351888;32;19991;-90
2022/10/23 00:04:43;;;;;;;;;;;;;;;13.73;59.93;100155.84;4351258;32;28186;-90
2022/10/23 00:07:08;;;;;;;;;;;;;;;13.82;59.94;100150.25;4350905;32;36227;-90
2022/10/23 00:09:33;;;;;;;;;;;;;;;13.78;59.93;100143.44;4351062;32;33457;-90
2022/10/23 00:11:59;;;;;;;;;;;;;;;13.83;59.94;100151.94;4351644;32;20286;-90
2022/10/23 00:14:24;;;;;;;;;;;;;;;13.90;59.94;100154.31;4351052;32;23072;-89
2022/10/23 00:16:49;;;;;;;;;;;;;;;13.85;59.94;100166.75;4351330;32;20005;-90
2022/10/23 00:19:14;;;;;;;;;;;;;;;13.86;59.94;100160.59;4350869;32;27420;-90
2022/10/23 00:21:39;;;;;;;;;;;;;;;13.77;59.93;100172.28;4350883;32;27274;-90
2022/10/23 00:24:05;;;;;;;;;;;;;;;13.76;59.93;100167.97;4350662;32;35240;-90
2022/10/23 00:26:30;;;;;;;;;;;;;;;13.70;59.93;100168.16;4363900;32;20036;-90
2022/10/23 00:28:55;;;;;;;;;;;;;;;13.56;59.92;100168.72;4351201;32;23715;-90
2022/10/23 00:31:21;;;;;;;;;;;;;;;13.45;59.92;100168.22;4350795;32;28238;-88
2022/10/23 00:33:46;;;;;;;;;;;;;;;13.49;59.92;100175.09;4351328;32;19998;-90
2022/10/23 00:36:12;;;;;;;;;;;;;;;13.54;59.92;100174.91;4351017;32;19995;-91
2022/10/23 00:38:38;;;;;;;;;;;;;;;13.79;59.94;100173.91;4351103;32;19985;-91
2022/10/23 00:41:03;;;;;;;;;;;;;;;13.68;59.93;100177.84;4351337;32;19987;-90
2022/10/23 00:43:29;;;;;;;;;;;;;;;13.36;59.92;100192.13;4351182;32;19975;-90
2022/10/23 00:45:54;;;;;;;;;;;;;;;13.18;59.90;100194.47;4351047;32;20005;-90
2022/10/23 00:48:19;;;;;;;;;;;;;;;13.36;59.92;100194.72;4351171;32;19995;-91
2022/10/23 00:50:45;;;;;;;;;;;;;;;13.45;59.92;100199.63;4351040;32;19987;-90
2022/10/23 00:53:10;;;;;;;;;;;;;;;13.56;59.92;100204.47;4352036;32;20246;-89
2022/10/23 00:55:37;;;;;;;;;;;;;;;13.56;59.92;100209.69;4352792;32;20025;-90
2022/10/23 00:58:02;;;;;;;;;;;;;;;13.30;59.91;100214.13;4353166;32;20388;-90
2022/10/23 01:00:29;;;;;;;;;;;;;;;13.43;59.92;100212.75;4364689;32;39428;-90
2022/10/23 01:02:54;;;;;;;;;;;;;;;13.29;59.91;100216.78;4353331;32;19997;-89
2022/10/23 01:05:21;;;;;;;;;;;;;;;13.50;59.93;100226.47;4353051;32;19976;-90
2022/10/23 01:07:51;;;;;;;;;;;;;;;13.31;59.91;100230.66;4353524;32;20001;-91
2022/10/23 01:10:27;;;;;;;;;;;;;;;13.14;59.91;100229.44;4353284;32;19991;-90
2022/10/23 01:12:59;;;;;;;;;;;;;;;13.11;59.89;100240.00;4353551;32;19997;-90
2022/10/23 01:15:40;;;;;;;;;;;;;;;13.10;59.90;100240.91;4353198;32;19956;-88
2022/10/23 01:18:11;;;;;;;;;;;;;;;12.93;59.89;100240.63;4353246;32;19999;-89
2022/10/23 01:20:43;;;;;;;;;;;;;;;12.74;59.88;100247.37;4353062;32;19995;-89
2022/10/23 01:23:22;;;;;;;;;;;;;;;12.63;59.88;100246.87;4352990;32;19971;-89
2022/10/23 01:26:05;;;;;;;;;;;;;;;12.55;59.87;100241.91;4366765;32;19967;-88
2022/10/23 01:28:33;;;;;;;;;;;;;;;12.63;59.87;100245.13;4352523;32;20050;-88
2022/10/23 01:30:58;;;;;;;;;;;;;;;12.78;59.88;100241.16;4353032;32;19963;-88
2022/10/23 01:33:25;;;;;;;;;;;;;;;12.64;59.87;100235.53;4352597;32;20355;-89
2022/10/23 01:35:56;;;;;;;;;;;;;;;12.45;59.86;100237.88;4352912;32;19975;-88
2022/10/23 01:38:31;;;;;;;;;;;;;;;12.50;59.86;100231.59;4352861;32;20001;-87
2022/10/23 01:40:57;;;;;;;;;;;;;;;12.59;59.88;100231.31;4353014;32;20005;-88
2022/10/23 01:43:24;;;;;;;;;;;;;;;12.43;59.86;100229.25;4353048;32;19998;-88
2022/10/23 01:45:54;;;;;;;;;;;;;;;12.49;59.86;100237.72;4353372;32;19994;-89
2022/10/23 01:48:21;;;;;;;;;;;;;;;12.51;59.87;100232.44;4353318;32;19983;-88
2022/10/23 01:50:46;;;;;;;;;;;;;;;12.45;59.87;100230.91;4352366;32;20810;-89
2022/10/23 01:53:11;;;;;;;;;;;;;;;12.39;59.86;100232.84;4352262;32;39599;-91
2022/10/23 01:55:36;;;;;;;;;;;;;;;12.53;59.87;100228.88;4352980;32;20031;-93
2022/10/23 01:58:01;;;;;;;;;;;;;;;12.55;59.87;100232.31;4352624;32;31461;-91
2022/10/23 02:00:27;;;;;;;;;;;;;;;12.41;59.86;100229.28;4352377;32;25967;-91
2022/10/23 02:02:52;;;;;;;;;;;;;;;12.52;59.87;100231.53;4353038;32;20320;-91
2022/10/23 02:05:19;;;;;;;;;;;;;;;12.30;59.86;100233.97;4352845;32;20027;-92
2022/10/23 02:07:45;;;;;;;;;;;;;;;12.39;59.86;100233.72;4352950;32;19991;-92
2022/10/23 02:10:10;;;;;;;;;;;;;;;12.29;59.86;100232.28;4353326;32;19979;-93
2022/10/23 02:12:35;;;;;;;;;;;;;;;12.31;59.86;100230.50;4340935;32;19983;-92
2022/10/23 02:15:06;;;;;;;;;;;;;;;12.35;59.86;100236.47;4366942;32;19971;-92
2022/10/23 02:17:34;;;;;;;;;;;;;;;12.45;59.86;100228.28;4353501;32;20014;-93
2022/10/23 02:20:11;;;;;;;;;;;;;;;12.44;59.87;100244.00;4353499;32;19991;-91
2022/10/23 02:22:37;;;;;;;;;;;;;;;12.32;59.86;100239.19;4353468;32;19979;-94
2022/10/23 02:25:11;;;;;;;;;;;;;;;12.17;59.85;100236.13;4353228;32;20324;-93
2022/10/23 02:27:37;;;;;;;;;;;;;;;12.34;59.85;100226.94;4367146;32;19979;-93
2022/10/23 02:30:09;;;;;;;;;;;;;;;12.36;59.87;100233.81;4367023;32;19995;-93
2022/10/23 02:32:34;;;;;;;;;;;;;;;12.15;59.85;100232.72;4353161;32;19991;-92
2022/10/23 02:34:59;;;;;;;;;;;;;;;12.15;59.85;100235.31;4352646;32;27383;-91
2022/10/23 02:37:24;;;;;;;;;;;;;;;12.25;59.85;100235.88;4340506;32;20322;-91
2022/10/23 02:39:50;;;;;;;;;;;;;;;12.28;59.85;100238.41;4353066;32;20268;-91
2022/10/23 02:42:33;;;;;;;;;;;;;;;12.27;59.85;100252.34;4340851;32;19978;-90
2022/10/23 02:45:03;;;;;;;;;;;;;;;12.11;59.84;100258.97;4340775;32;20005;-92
2022/10/23 02:47:47;;;;;;;;;;;;;;;12.18;59.85;100258.72;4340728;32;20063;-93
2022/10/23 02:50:48;;;;;;;;;;;;;;;12.08;59.84;100269.50;4353191;32;20356;-93
2022/10/23 02:53:15;;;;;;;;;;;;;;;12.00;59.84;100269.69;4305841;33;19995;-92
2022/10/23 02:55:59;;;;;;;;;;;;;;;11.79;59.83;100268.56;4344532;32;19975;-90
2022/10/23 02:58:42;;;;;;;;;;;;;;;11.74;59.82;100270.41;4353489;32;20150;-89
2022/10/23 03:01:08;;;;;;;;;;;;;;;11.61;59.82;100269.94;4366721;32;20005;-90
2022/10/23 03:03:34;;;;;;;;;;;;;;;11.80;59.83;100277.25;4340810;32;19990;-92
2022/10/23 03:06:00;;;;;;;;;;;;;;;11.94;59.83;100278.56;4352777;32;20630;-90
2022/10/23 03:08:25;;;;;;;;;;;;;;;11.94;59.83;100280.31;4339942;32;35341;-93
2022/10/23 03:10:50;;;;;;;;;;;;;;;12.04;59.84;100279.12;4353298;32;20022;-93
2022/10/23 03:13:15;;;;;;;;;;;;;;;12.12;59.84;100284.16;4352274;32;35635;-94
2022/10/23 03:15:41;;;;;;;;;;;;;;;12.17;59.85;100283.09;4339987;32;19995;-92
2022/10/23 03:18:06;;;;;;;;;;;;;;;11.96;59.83;100287.19;4353181;32;20339;-92
2022/10/23 03:20:31;;;;;;;;;;;;;;;12.19;59.84;100283.91;4352757;32;19988;-92
2022/10/23 03:22:56;;;;;;;;;;;;;;;12.09;59.84;100287.72;4340156;32;19997;-91
2022/10/23 03:25:21;;;;;;;;;;;;;;;12.00;59.84;100298.41;4339700;32;32292;-90
2022/10/23 03:27:47;;;;;;;;;;;;;;;12.05;59.84;100287.81;4339838;32;32206;-90
2022/10/23 03:30:12;;;;;;;;;;;;;;;12.15;59.85;100295.34;4339878;32;36142;-91
2022/10/23 03:32:37;;;;;;;;;;;;;;;12.46;59.87;100292.66;4339066;32;34230;-92
2022/10/23 03:35:02;;;;;;;;;;;;;;;12.40;59.86;100298.06;4339779;32;30422;-92
2022/10/23 03:37:28;;;;;;;;;;;;;;;12.22;59.85;100293.41;4340470;32;20050;-91
2022/10/23 03:39:53;;;;;;;;;;;;;;;12.18;59.85;100295.25;4351933;32;34341;-93
2022/10/23 03:42:18;;;;;;;;;;;;;;;12.31;59.86;100292.28;4340093;32;24970;-93
2022/10/23 03:44:43;;;;;;;;;;;;;;;12.27;59.85;100291.50;4339981;32;28149;-92
2022/10/23 03:47:10;;;;;;;;;;;;;;;12.15;59.85;100291.87;4339634;32;39819;-90
2022/10/23 03:49:36;;;;;;;;;;;;;;;12.12;59.85;100294.59;4340378;32;19991;-90
2022/10/23 03:52:01;;;;;;;;;;;;;;;12.13;59.84;100291.94;4352765;32;20014;-90
2022/10/23 03:54:26;;;;;;;;;;;;;;;12.11;59.84;100304.19;4339737;32;28011;-91
2022/10/23 03:56:52;;;;;;;;;;;;;;;11.89;59.83;100297.87;4340307;32;20317;-90
2022/10/23 03:59:17;;;;;;;;;;;;;;;12.01;59.84;100299.25;4340303;32;20059;-91
2022/10/23 04:01:42;;;;;;;;;;;;;;;11.57;59.81;100299.56;4339199;32;36262;-90
2022/10/23 04:04:07;;;;;;;;;;;;;;;11.60;59.83;100299.50;4352375;32;19995;-91
2022/10/23 04:06:33;;;;;;;;;;;;;;;11.59;59.81;100302.13;4340145;32;20336;-92
2022/10/23 04:08:58;;;;;;;;;;;;;;;11.68;59.82;100300.16;4352500;32;19991;-92
2022/10/23 04:11:23;;;;;;;;;;;;;;;11.67;59.82;100297.59;4351625;32;33307;-92
2022/10/23 04:13:48;;;;;;;;;;;;;;;11.75;59.82;100299.97;4339153;32;35927;-90
2022/10/23 04:16:14;;;;;;;;;;;;;;;11.60;59.81;100294.28;4340064;32;19995;-92
2022/10/23 04:18:39;;;;;;;;;;;;;;;11.62;59.82;100287.28;4352257;32;19990;-91
2022/10/23 04:21:04;;;;;;;;;;;;;;;11.69;59.82;100294.03;4352468;32;20001;-92
2022/10/23 04:23:30;;;;;;;;;;;;;;;11.73;59.83;100293.94;4351505;32;23158;-91
2022/10/23 04:25:56;;;;;;;;;;;;;;;11.82;59.82;100291.94;4351990;32;20313;-92
2022/10/23 04:28:21;;;;;;;;;;;;;;;11.56;59.81;100289.19;4341639;32;19998;-92
2022/10/23 04:30:46;;;;;;;;;;;;;;;11.47;59.82;100298.13;4340793;32;36714;-90
2022/10/23 04:33:11;;;;;;;;;;;;;;;11.40;59.81;100291.37;4352955;32;36154;-91
2022/10/23 04:35:37;;;;;;;;;;;;;;;11.34;59.80;100292.34;4352860;32;39634;-92
2022/10/23 04:38:02;;;;;;;;;;;;;;;11.17;59.80;100293.72;4353270;32;28850;-93
2022/10/23 04:40:27;;;;;;;;;;;;;;;11.21;59.79;100296.19;4366727;32;26746;-93
2022/10/23 04:42:52;;;;;;;;;;;;;;;11.25;59.80;100291.75;4341394;32;19971;-93
2022/10/23 04:45:17;;;;;;;;;;;;;;;11.24;59.80;100293.50;4340543;32;33737;-92
2022/10/23 04:47:43;;;;;;;;;;;;;;;11.27;59.80;100296.03;4353138;32;29708;-92
2022/10/23 04:50:08;;;;;;;;;;;;;;;11.28;59.80;100295.13;4352993;32;34713;-93
2022/10/23 04:52:33;;;;;;;;;;;;;;;11.20;59.79;100299.69;4353865;32;20008;-92
2022/10/23 04:54:58;;;;;;;;;;;;;;;11.28;59.80;100304.72;4341322;32;19991;-92
2022/10/23 04:57:24;;;;;;;;;;;;;;;11.32;59.80;100303.72;4352458;32;29406;-92
2022/10/23 04:59:49;;;;;;;;;;;;;;;11.36;59.80;100300.16;4340763;32;32824;-92
2022/10/23 05:02:14;;;;;;;;;;;;;;;11.44;59.80;100300.81;4340885;32;22541;-92
2022/10/23 05:04:39;;;;;;;;;;;;;;;11.46;59.81;100305.97;4341713;32;19987;-92
2022/10/23 05:07:04;;;;;;;;;;;;;;;11.47;59.81;100315.50;4340625;32;34373;-92
2022/10/23 05:09:30;;;;;;;;;;;;;;;11.48;59.81;100312.00;4340865;32;38224;-92
2022/10/23 05:11:55;;;;;;;;;;;;;;;11.40;59.81;100313.97;4352721;32;28219;-90
2022/10/23 05:14:20;;;;;;;;;;;;;;;11.37;59.80;100309.69;4353868;32;20003;-90
2022/10/23 05:16:47;;;;;;;;;;;;;;;11.48;59.82;100309.41;4353192;32;22901;-90
2022/10/23 05:19:14;;;;;;;;;;;;;;;11.46;59.81;100308.59;4341204;32;20002;-89
2022/10/23 05:21:39;;;;;;;;;;;;;;;11.59;59.82;100317.78;4341469;32;20050;-89
2022/10/23 05:24:04;;;;;;;;;;;;;;;11.57;59.81;100310.00;4341031;32;20011;-90
2022/10/23 05:26:29;;;;;;;;;;;;;;;11.54;59.82;100319.66;4341120;32;20021;-89
2022/10/23 05:28:55;;;;;;;;;;;;;;;11.18;59.80;100321.50;4340411;32;20010;-88
2022/10/23 05:31:20;;;;;;;;;;;;;;;11.14;59.79;100320.72;4339508;32;32636;-88
2022/10/23 05:33:45;;;;;;;;;;;;;;;11.04;59.78;100321.81;4351604;32;33172;-90
2022/10/23 05:36:11;;;;;;;;;;;;;;;10.99;59.79;100321.06;4340473;32;20034;-89
2022/10/23 05:38:36;;;;;;;;;;;;;;;10.94;59.78;100325.56;4340558;32;19991;-90
2022/10/23 05:41:02;;;;;;;;;;;;;;;11.17;59.79;100320.62;4340616;32;20305;-90
2022/10/23 05:43:29;;;;;;;;;;;;;;;11.29;59.79;100325.50;4340775;32;20010;-90
2022/10/23 05:45:55;;;;;;;;;;;;;;;11.37;59.81;100323.59;4353712;32;20054;-90
2022/10/23 05:48:20;;;;;;;;;;;;;;;11.42;59.81;100323.47;4340752;32;19983;-90
2022/10/23 05:50:45;;;;;;;;;;;;;;;11.10;59.79;100320.81;4340473;32;31076;-90
2022/10/23 05:53:10;;;;;;;;;;;;;;;11.22;59.79;100323.12;4340034;32;35749;-90
2022/10/23 05:55:36;;;;;;;;;;;;;;;11.55;59.81;100334.41;4340775;32;19987;-90
2022/10/23 05:58:02;;;;;;;;;;;;;;;11.26;59.80;100333.41;4341194;32;19979;-90
2022/10/23 06:00:27;;;;;;;;;;;;;;;11.28;59.80;100329.00;4340526;32;20294;-89
2022/10/23 06:02:52;;;;;;;;;;;;;;;11.42;59.80;100326.06;4340325;32;20034;-90
2022/10/23 06:05:17;;;;;;;;;;;;;;;11.40;59.81;100338.28;4340111;32;33624;-90
2022/10/23 06:07:43;;;;;;;;;;;;;;;11.53;59.82;100339.66;4352467;32;19979;-90
2022/10/23 06:10:08;;;;;;;;;;;;;;;11.35;59.80;100340.97;4339327;32;35385;-90
2022/10/23 06:12:33;;;;;;;;;;;;;;;11.39;59.81;100339.19;4352278;32;19996;-90
2022/10/23 06:14:58;;;;;;;;;;;;;;;11.42;59.80;100341.72;4352938;32;20005;-90
2022/10/23 06:17:23;;;;;;;;;;;;;;;11.43;59.80;100337.34;4352508;32;20001;-89
2022/10/23 06:19:49;;;;;;;;;;;;;;;11.64;59.82;100347.22;4352012;32;33732;-89
2022/10/23 06:22:14;;;;;;;;;;;;;;;11.76;59.83;100343.41;4339510;32;38330;-89
2022/10/23 06:24:39;;;;;;;;;;;;;;;11.68;59.83;100343.62;4352187;32;20010;-89
2022/10/23 06:27:04;;;;;;;;;;;;;;;12.05;59.84;100342.63;4352824;32;19971;-89
2022/10/23 06:29:30;;;;;;;;;;;;;;;12.17;59.85;100347.50;4339256;32;38065;-87
2022/10/23 06:31:55;;;;;;;;;;;;;;;12.14;59.85;100347.59;4340274;32;20083;-88
2022/10/23 06:34:20;;;;;;;;;;;;;;;12.43;59.86;100360.62;4352068;32;28761;-87
2022/10/23 06:36:45;;;;;;;;;;;;;;;12.41;59.86;100375.50;4352628;32;20369;-88
2022/10/23 06:39:10;;;;;;;;;;;;;;;12.35;59.85;100373.06;4339595;32;19987;-88
2022/10/23 06:41:37;;;;;;;;;;;;;;;12.33;59.85;100374.88;4351740;32;19983;-88
2022/10/23 06:44:03;;;;;;;;;;;;;;;12.40;59.86;100391.19;4351156;32;19987;-89
2022/10/23 06:46:31;;;;;;;;;;;;;;;12.65;59.87;100381.75;4339750;32;20238;-89
2022/10/23 06:48:56;;;;;;;;;;;;;;;12.73;59.88;100378.88;4340585;32;20043;-91
2022/10/23 06:51:22;;;;;;;;;;;;;;;12.72;59.87;100382.41;4351109;32;23485;-90
2022/10/23 06:53:47;;;;;;;;;;;;;;;12.98;59.90;100378.97;4340655;32;20051;-87
2022/10/23 06:56:13;;;;;;;;;;;;;;;12.88;59.89;100375.81;4339421;32;33314;-90
2022/10/23 06:58:38;;;;;;;;;;;;;;;13.12;59.90;100375.03;4340180;32;26534;-89
2022/10/23 07:01:04;;;;;;;;;;;;;;;12.91;59.89;100383.53;4339518;32;20365;-90
2022/10/23 07:03:29;;;;;;;;;;;;;;;13.15;59.90;100385.38;4340391;32;20007;-90
2022/10/23 07:05:54;;;;;;;;;;;;;;;13.32;59.91;100377.03;4352443;32;27495;-90
2022/10/23 07:08:20;;;;;;;;;;;;;;;13.51;59.92;100379.87;4340145;32;19982;-89
2022/10/23 07:10:46;;;;;;;;;;;;;;;13.74;59.93;100374.72;4340060;32;20285;-89
2022/10/23 07:13:12;;;;;;;;;;;;;;;13.91;59.94;100376.72;4339950;32;20006;-89
2022/10/23 07:15:37;;;;;;;;;;;;;;;14.04;59.96;100374.53;4339495;32;36227;-89
2022/10/23 07:18:03;;;;;;;;;;;;;;;14.26;59.96;100378.06;4339554;32;20320;-86
2022/10/23 07:20:28;;;;;;;;;;;;;;;14.41;59.97;100374.84;4351832;32;20034;-87
2022/10/23 07:22:53;;;;;;;;;;;;;;;14.57;59.98;100375.16;4350172;32;35877;-88
2022/10/23 07:25:19;;;;;;;;;;;;;;;14.58;59.98;100378.63;4351303;32;19983;-88
2022/10/23 07:27:44;;;;;;;;;;;;;;;14.77;59.98;100381.41;4351157;32;19975;-89
2022/10/23 07:30:10;;;;;;;;;;;;;;;14.84;59.99;100390.72;4339678;32;19999;-88
2022/10/23 07:32:35;;;;;;;;;;;;;;;15.00;60.00;100381.34;4339532;32;20006;-89
2022/10/23 07:35:00;;;;;;;;;;;;;;;15.05;60.00;100377.62;4350805;32;35620;-89
2022/10/23 07:37:27;;;;;;;;;;;;;;;14.98;60.00;100368.31;4351001;32;34875;-89
2022/10/23 07:39:52;;;;;;;;;;;;;;;15.18;60.02;100364.88;4339333;32;19984;-88
2022/10/23 07:42:17;;;;;;;;;;;;;;;15.11;60.01;100360.78;4339242;32;20085;-89
2022/10/23 07:44:42;;;;;;;;;;;;;;;15.02;60.00;100369.88;4338684;32;32951;-89
2022/10/23 07:47:08;;;;;;;;;;;;;;;15.16;60.02;100364.09;4339729;32;20321;-89
2022/10/23 07:49:33;;;;;;;;;;;;;;;15.36;60.02;100364.09;4369016;32;20001;-87
2022/10/23 07:51:59;;;;;;;;;;;;;;;15.38;60.02;100373.66;4353213;32;19979;-87
2022/10/23 07:54:24;;;;;;;;;;;;;;;15.26;60.01;100375.91;4351795;32;27981;-88
2022/10/23 07:56:49;;;;;;;;;;;;;;;15.45;60.02;100373.38;4343239;32;38245;-87
2022/10/23 07:59:20;;;;;;;;;;;;;;;15.43;60.03;100361.22;4362424;32;29991;-88
2022/10/23 08:01:47;;;;;;;;;;;;;;;15.39;60.01;100363.13;4366529;32;20649;-90
2022/10/23 08:04:12;;;;;;;;;;;;;;;15.54;60.02;100357.22;4370453;32;20700;-86
2022/10/23 08:06:37;;;;;;;;;;;;;;;15.52;60.02;100352.97;4378997;32;19975;-86
2022/10/23 08:09:02;;;;;;;;;;;;;;;15.53;60.02;100358.13;4370328;32;19997;-85
2022/10/23 08:11:34;;;;;;;;;;;;;;;15.74;60.04;100342.41;4369801;32;20339;-87
2022/10/23 08:13:59;;;;;;;;;;;;;;;15.77;60.03;100351.00;4348526;32;19971;-89
2022/10/23 08:16:24;;;;;;;;;;;;;;;15.99;60.05;100350.06;4369521;32;35858;-87
2022/10/23 08:18:49;;;;;;;;;;;;;;;16.09;60.06;100353.97;4370212;32;20333;-88
2022/10/23 08:21:15;;;;;;;;;;;;;;;16.07;60.05;100346.16;4359097;32;19995;-87
2022/10/23 08:23:40;;;;;;;;;;;;;;;16.39;60.07;100349.97;4379354;32;19971;-92
2022/10/23 08:26:05;;;;;;;;;;;;;;;16.36;60.07;100351.88;4359151;32;19987;-90
2022/10/23 08:28:30;;;;;;;;;;;;;;;16.47;60.08;100339.94;4359365;32;19982;-90
2022/10/23 08:30:56;;;;;;;;;;;;;;;16.55;60.08;100345.69;4359139;32;19991;-91
2022/10/23 08:33:21;;;;;;;;;;;;;;;16.77;60.09;100347.31;4359190;32;19983;-92
2022/10/23 08:35:46;;;;;;;;;;;;;;;16.88;60.10;100350.31;4359550;32;19982;-91
2022/10/23 08:38:11;;;;;;;;;;;;;;;16.92;60.11;100346.59;4358921;32;30546;-93
2022/10/23 08:40:36;;;;;;;;;;;;;;;17.22;60.11;100344.22;4371351;32;27665;-93
2022/10/23 08:43:04;;;;;;;;;;;;;;;17.31;60.11;100341.16;4358745;32;31787;-93
2022/10/23 08:45:31;;;;;;;;;;;;;;;17.42;60.13;100346.72;4359408;32;19996;-91
2022/10/23 08:47:57;;;;;;;;;;;;;;;17.55;60.13;100335.56;4359484;32;20384;-92
2022/10/23 08:50:49;;;;;;;;;;;;;;;17.98;60.15;100328.91;4359437;32;20005;-91
2022/10/23 08:53:26;;;;;;;;;;;;;;;18.10;60.16;100315.97;4369018;32;19974;-90
2022/10/23 08:56:00;;;;;;;;;;;;;;;18.16;60.17;100320.03;4384802;32;20568;-90
2022/10/23 08:58:39;;;;;;;;;;;;;;;18.45;60.18;100326.34;4358926;32;19987;-91
2022/10/23 09:01:33;;;;;;;;;;;;;;;18.48;60.18;100318.28;4371393;32;19971;-90
2022/10/23 09:03:58;;;;;;;;;;;;;;;18.21;60.17;100323.25;4331722;32;19967;-93
2022/10/23 09:06:29;;;;;;;;;;;;;;;18.29;60.17;100323.72;4358653;32;20002;-94
2022/10/23 09:09:07;;;;;;;;;;;;;;;18.40;60.18;100325.75;4371487;32;20365;-92
2022/10/23 09:11:42;;;;;;;;;;;;;;;18.78;60.21;100317.53;4371437;32;19995;-93
2022/10/23 09:14:11;;;;;;;;;;;;;;;18.84;60.20;100327.72;4355469;32;19951;-93
2022/10/23 09:16:36;;;;;;;;;;;;;;;19.10;60.21;100321.78;4368761;32;19983;-95
2022/10/23 09:19:02;;;;;;;;;;;;;;;19.25;60.22;100323.56;4368792;32;20013;-96
2022/10/23 09:21:27;;;;;;;;;;;;;;;19.13;60.22;100326.91;4356273;32;20009;-96
2022/10/23 09:23:52;;;;;;;;;;;;;;;19.28;60.23;100333.06;4366249;32;19975;-96
2022/10/23 09:26:18;;;;;;;;;;;;;;;19.54;60.23;100342.13;4364596;32;32474;-96
2022/10/23 09:28:50;;;;;;;;;;;;;;;19.82;60.25;100344.81;4369686;32;20025;-96
2022/10/23 09:31:15;;;;;;;;;;;;;;;19.83;60.25;100348.28;4352773;32;20003;-96
2022/10/23 09:33:40;;;;;;;;;;;;;;;19.87;60.26;100348.03;4378903;32;19981;-96
2022/10/23 09:36:14;;;;;;;;;;;;;;;19.98;60.26;100344.72;4356267;32;19998;-96
2022/10/23 09:38:46;;;;;;;;;;;;;;;19.93;60.25;100342.37;4365341;32;20668;-96
2022/10/23 09:41:31;;;;;;;;;;;;;;;20.14;60.27;100345.50;4388768;32;19982;-96
2022/10/23 09:44:00;;;;;;;;;;;;;;;20.27;60.28;100339.41;4354949;32;19992;-93
2022/10/23 09:46:37;;;;;;;;;;;;;;;20.31;60.28;100341.78;4352266;32;19955;-95
2022/10/23 09:49:02;;;;;;;;;;;;;;;20.47;60.29;100331.97;4354990;32;19968;-96
2022/10/23 09:51:28;;;;;;;;;;;;;;;20.64;60.30;100332.69;4367583;32;19990;-95
2022/10/23 09:53:56;;;;;;;;;;;;;;;20.66;60.30;100330.78;4353759;32;38223;-90
2022/10/23 09:56:32;;;;;;;;;;;;;;;20.79;60.31;100326.38;4354925;32;19973;-95
2022/10/23 09:58:58;;;;;;;;;;;;;;;20.80;60.31;100328.94;4354815;32;19978;-95
2022/10/23 10:01:43;;;;;;;;;;;;;;;20.81;60.31;100327.97;4354373;32;19995;-94
2022/10/23 10:04:08;;;;;;;;;;;;;;;20.84;60.30;100322.50;4379428;32;19952;-90
2022/10/23 10:06:34;;;;;;;;;;;;;;;21.03;60.32;100324.78;4355260;32;19955;-88
2022/10/23 10:09:00;;;;;;;;;;;;;;;21.10;60.33;100327.88;4354524;32;34239;-88
2022/10/23 10:11:26;;;;;;;;;;;;;;;21.09;60.32;100324.41;4355412;32;20007;-92
2022/10/23 10:13:54;;;;;;;;;;;;;;;21.24;60.32;100319.88;4367630;32;19947;-88
2022/10/23 10:16:28;;;;;;;;;;;;;;;21.15;60.32;100323.97;4355053;32;19970;-89
2022/10/23 10:19:12;;;;;;;;;;;;;;;21.25;60.32;100323.38;4377585;32;20031;-96
2022/10/23 10:21:40;;;;;;;;;;;;;;;21.27;60.33;100322.31;4376738;32;20011;-96
2022/10/23 10:24:07;;;;;;;;;;;;;;;21.26;60.33;100317.97;4358832;32;19964;-93
2022/10/23 10:26:38;;;;;;;;;;;;;;;21.21;60.33;100317.41;4358585;32;19996;-96
2022/10/23 10:29:06;;;;;;;;;;;;;;;21.27;60.33;100310.88;4351180;32;20554;-96
2022/10/23 10:31:51;;;;;;;;;;;;;;;21.31;60.33;100318.53;4373671;32;20352;-96
2022/10/23 10:34:35;;;;;;;;;;;;;;;21.15;60.32;100310.75;4357647;32;19948;-92
2022/10/23 10:37:02;;;;;;;;;;;;;;;21.10;60.32;100312.00;4371366;32;19994;-96
2022/10/23 10:39:38;;;;;;;;;;;;;;;21.08;60.31;100306.81;4358116;32;19998;-96
2022/10/23 10:42:06;;;;;;;;;;;;;;;21.04;60.32;100307.94;4373934;32;19960;-96
2022/10/23 10:44:50;;;;;;;;;;;;;;;21.02;60.31;100309.00;4357003;32;19936;-96
2022/10/23 10:47:25;;;;;;;;;;;;;;;21.09;60.31;100305.03;4367531;32;20352;-94
2022/10/23 10:50:02;;;;;;;;;;;;;;;21.03;60.32;100295.66;4340789;32;19995;-92
2022/10/23 10:52:32;;;;;;;;;;;;;;;21.03;60.32;100287.72;4340780;32;20007;-93
2022/10/23 10:55:15;;;;;;;;;;;;;;;21.09;60.33;100278.53;4353230;32;19975;-93
2022/10/23 10:57:42;;;;;;;;;;;;;;;21.07;60.32;100285.75;4352826;32;19975;-94
2022/10/23 11:00:14;;;;;;;;;;;;;;;21.02;60.31;100279.88;4340568;32;19990;-92
2022/10/23 11:02:43;;;;;;;;;;;;;;;21.01;60.33;100275.53;4340285;32;20009;-94
2022/10/23 11:05:17;;;;;;;;;;;;;;;20.94;60.32;100261.88;4366330;32;20015;-92
2022/10/23 11:07:50;;;;;;;;;;;;;;;21.04;60.32;100254.16;4340345;32;20633;-91
2022/10/23 11:10:15;;;;;;;;;;;;;;;21.08;60.32;100256.53;4353302;32;19983;-92
2022/10/23 11:12:41;;;;;;;;;;;;;;;21.19;60.33;100252.28;4366902;32;19998;-93
2022/10/23 11:15:20;;;;;;;;;;;;;;;21.21;60.33;100261.81;4340740;32;19983;-93
2022/10/23 11:17:55;;;;;;;;;;;;;;;21.31;60.34;100251.50;4353794;32;19983;-96
2022/10/23 11:20:26;;;;;;;;;;;;;;;21.20;60.33;100260.13;4341074;32;20601;-96
2022/10/23 11:22:55;;;;;;;;;;;;;;;21.32;60.33;100266.44;4354681;32;20030;-96
2022/10/23 11:25:20;;;;;;;;;;;;;;;21.33;60.34;100265.47;4351766;32;20348;-95
2022/10/23 11:27:48;;;;;;;;;;;;;;;21.22;60.33;100255.56;4379425;32;19967;-96
2022/10/23 11:30:17;;;;;;;;;;;;;;;21.05;60.33;100254.06;4372438;32;19994;-91
2022/10/23 11:33:02;;;;;;;;;;;;;;;21.32;60.33;100261.13;4355983;32;20048;-94
2022/10/23 11:35:46;;;;;;;;;;;;;;;21.40;60.35;100259.66;4367231;32;19995;-93
2022/10/23 11:38:12;;;;;;;;;;;;;;;21.43;60.35;100253.28;4367763;32;19982;-94
2022/10/23 11:40:41;;;;;;;;;;;;;;;21.52;60.35;100252.62;4382513;32;20367;-94
2022/10/23 11:43:06;;;;;;;;;;;;;;;21.63;60.35;100259.84;4370826;32;19997;-91
2022/10/23 11:45:33;;;;;;;;;;;;;;;21.70;60.36;100251.38;4366594;32;24204;-92
2022/10/23 11:48:02;;;;;;;;;;;;;;;21.81;60.36;100247.13;4367151;32;19994;-92
2022/10/23 11:52:27;;;;;;;12.73;8.20;;;;;;;22.07;60.37;100240.00;4512133;31;230532;-94
2022/10/23 11:55:00;;;;;;;9.32;7.35;;;;;;;22.05;60.37;100226.84;4501106;31;23532;-96
2022/10/23 11:57:26;;;;;;;9.55;7.37;;;;;;;22.11;60.38;100237.00;4485875;32;20110;-96
2022/10/23 11:59:52;;;;;;;10.95;7.70;;;;;;;22.33;60.40;100234.50;4472396;31;33063;-94
2022/10/23 12:02:36;;;;;;;8.50;6.47;;;;;;;22.54;60.40;100225.94;4480398;31;20099;-95
2022/10/23 12:05:30;;;;;;;7.85;6.03;;;;;;;22.24;60.38;100221.94;4498093;31;20064;-95
2022/10/23 12:07:57;;;;;;;9.15;6.07;;;;;;;22.48;60.40;100223.75;4493230;31;20044;-95
2022/10/23 12:10:27;;;;;;;11.65;9.02;;;;;;;22.66;60.41;100217.88;4483202;32;20157;-94
2022/10/23 12:12:57;;;;;;;8.18;5.18;;;;;;;22.68;60.41;100212.47;4496245;31;20440;-96
2022/10/23 12:15:23;;;;;;;;;;;;;;;22.74;60.42;100208.53;4484096;32;20108;-95
2022/10/23 12:17:49;;;;;;;8.90;5.87;;;;;;;22.47;60.40;100208.75;4498713;32;19960;-93
2022/10/23 12:20:14;;;;;;;10.63;5.90;;;;;;;22.55;60.40;100211.69;4484835;31;20152;-95
2022/10/23 12:22:41;;;;;;;10.17;6.47;;;;;;;22.45;60.40;100208.03;4509805;31;20085;-95
2022/10/23 12:25:38;;;;;;;8.35;5.70;;;;;;;22.44;60.40;100198.38;4485754;32;20130;-94
2022/10/23 12:28:25;;;;;;;10.88;6.90;;;;;;;22.69;60.41;100198.22;4490376;31;20138;-95
2022/10/23 12:31:02;;;;;;;14.32;10.00;;;;;;;22.70;60.41;100196.41;4499531;31;20119;-93
2022/10/23 12:33:40;;;;;;;11.40;7.50;;;;;;;22.66;60.41;100193.16;4496069;31;20109;-93
2022/10/23 12:36:21;;;;;;;13.60;7.93;;;;;;;22.79;60.41;100191.28;4485277;32;20529;-93
2022/10/23 12:38:48;;;;;;;20.48;11.90;;;;;;;22.75;60.41;100181.03;4478887;31;20088;-92